Northwood, New Hampshire
Current Conditions -  °F | °C
As of 3:51 AM on Monday 22 Dec 2014 (Local Time) from KDAW Reporting Station
Overcast Overcast  
Wind Chill: 25°   Ceiling: 5000
Heat Index: 30°   Visibility: 10mi
Dew Point: 23°   Wind: 5mph
Humidity: 75%   Direction: 340°NNW
Pressure: 30.36"   Gusts: NA
Location:  43.2°N, 71.15°W
Report Text: KDAW 220851Z AUTO 34004KT 10SM OVC050 M01/M05 A3036 RMK AO2 SLP280 T10111050 58001
Loading
Personal Weather Stations






























Interactive Weather Map New forecast layout! Learn more

10-Day Weather Forecast

Advertisements
Track Severe Weather on mobile